Terminal Aerodrome Forecast
Issued by NWS

Home | Current Version | Previous Version | Text Only | Print | Product List | Glossary On
Versions: 1 2 3 4 5 6 7 8 9 10 11 12 13 14 15 16 17 18 19 20 21 22 23 24 25 26 27 28 29 30 31
000
FTAK31 PAFA 261125 CCA
TAFAOM
TAF COR
PAOM 261125Z 2612/2712 14015KT 2SM -SN BR BKN012 OVC035
      TEMPO 2612/2616 1 1/2SM -SN BR BKN010 OVC030
     FM261800 17018KT 3SM -SN BR SCT015 OVC025
     FM270600 13010KT 5SM -SHSN SCT015 BKN030=

USA.gov is the U.S. government's official web portal to all federal, state and local government web resources and services.